<?xml version="1.0" encoding="UTF-8" standalone="no" ?>
<gpx xmlns="http://www.topografix.com/GPX/1/1" xmlns:xsi="http://www.w3.org/2001/XMLSchema-instance" xsi:schemaLocation="http://www.topografix.com/GPX/1/1 http://www.topografix.com/GPX/1/1/gpx.xsd" version="1.1" creator="VisuGPX - https://www.visugpx.com">
  <metadata>
    <name>La tête du bois</name>
    <desc><![CDATA[24 Km Dénivelé: 1000 m IBP: 113]]></desc>
  </metadata>
  <trk>
    <name><![CDATA[la tête du bois 24km x 1000m]]></name>
    <extensions>
      <line xmlns="http://www.topografix.com/GPX/gpx_style/0/2">
        <width>4</width>
      </line>
    </extensions>
    <trkseg>
      <trkpt lat="45.30677" lon="4.11554">
        <ele>442.9</ele>
        <time>2026-02-26T09:46:51.397Z</time>
      </trkpt>
      <trkpt lat="45.30631" lon="4.11498">
        <ele>443.1</ele>
        <time>2026-02-26T09:46:58.074Z</time>
      </trkpt>
      <trkpt lat="45.3078" lon="4.11399">
        <ele>447</ele>
        <time>2026-02-26T09:47:16.340Z</time>
      </trkpt>
      <trkpt lat="45.30878" lon="4.11357">
        <ele>450.5</ele>
        <time>2026-02-26T09:47:27.734Z</time>
      </trkpt>
      <trkpt lat="45.30886" lon="4.11241">
        <ele>453.2</ele>
        <time>2026-02-26T09:47:36.831Z</time>
      </trkpt>
      <trkpt lat="45.30899" lon="4.11177">
        <ele>455.3</ele>
        <time>2026-02-26T09:47:42.110Z</time>
      </trkpt>
      <trkpt lat="45.30952" lon="4.11195">
        <ele>455.8</ele>
        <time>2026-02-26T09:47:48.130Z</time>
      </trkpt>
      <trkpt lat="45.31016" lon="4.11106">
        <ele>459.4</ele>
        <time>2026-02-26T09:47:58.097Z</time>
      </trkpt>
      <trkpt lat="45.31049" lon="4.11047">
        <ele>462.2</ele>
        <time>2026-02-26T09:48:03.998Z</time>
      </trkpt>
      <trkpt lat="45.31059" lon="4.11002">
        <ele>463.8</ele>
        <time>2026-02-26T09:48:07.737Z</time>
      </trkpt>
      <trkpt lat="45.31151" lon="4.11012">
        <ele>466.2</ele>
        <time>2026-02-26T09:48:18.029Z</time>
      </trkpt>
      <trkpt lat="45.31181" lon="4.11008">
        <ele>467.3</ele>
        <time>2026-02-26T09:48:21.285Z</time>
      </trkpt>
      <trkpt lat="45.31209" lon="4.10984">
        <ele>470.6</ele>
        <time>2026-02-26T09:48:24.997Z</time>
      </trkpt>
      <trkpt lat="45.31235" lon="4.10974">
        <ele>473.1</ele>
        <time>2026-02-26T09:48:27.979Z</time>
      </trkpt>
      <trkpt lat="45.31214" lon="4.1094">
        <ele>475</ele>
        <time>2026-02-26T09:48:31.571Z</time>
      </trkpt>
      <trkpt lat="45.31305" lon="4.10818">
        <ele>488.8</ele>
        <time>2026-02-26T09:48:45.470Z</time>
      </trkpt>
      <trkpt lat="45.31383" lon="4.10727">
        <ele>495</ele>
        <time>2026-02-26T09:48:56.865Z</time>
      </trkpt>
      <trkpt lat="45.31454" lon="4.10616">
        <ele>502.7</ele>
        <time>2026-02-26T09:49:08.555Z</time>
      </trkpt>
      <trkpt lat="45.31495" lon="4.10574">
        <ele>508.8</ele>
        <time>2026-02-26T09:49:14.258Z</time>
      </trkpt>
      <trkpt lat="45.3148" lon="4.10534">
        <ele>509.3</ele>
        <time>2026-02-26T09:49:17.824Z</time>
      </trkpt>
      <trkpt lat="45.3136" lon="4.10529">
        <ele>509.8</ele>
        <time>2026-02-26T09:49:31.312Z</time>
      </trkpt>
      <trkpt lat="45.31323" lon="4.10508">
        <ele>515.4</ele>
        <time>2026-02-26T09:49:35.800Z</time>
      </trkpt>
      <trkpt lat="45.31248" lon="4.10519">
        <ele>515.1</ele>
        <time>2026-02-26T09:49:44.265Z</time>
      </trkpt>
      <trkpt lat="45.31176" lon="4.10495">
        <ele>514.3</ele>
        <time>2026-02-26T09:49:52.464Z</time>
      </trkpt>
      <trkpt lat="45.3113" lon="4.10467">
        <ele>519</ele>
        <time>2026-02-26T09:49:57.999Z</time>
      </trkpt>
      <trkpt lat="45.31105" lon="4.104">
        <ele>532.7</ele>
        <time>2026-02-26T09:50:04.066Z</time>
      </trkpt>
      <trkpt lat="45.31018" lon="4.10342">
        <ele>530.1</ele>
        <time>2026-02-26T09:50:14.744Z</time>
      </trkpt>
      <trkpt lat="45.30934" lon="4.10297">
        <ele>529.7</ele>
        <time>2026-02-26T09:50:24.666Z</time>
      </trkpt>
      <trkpt lat="45.30997" lon="4.10253">
        <ele>548.8</ele>
        <time>2026-02-26T09:50:32.661Z</time>
      </trkpt>
      <trkpt lat="45.31004" lon="4.10193">
        <ele>563.1</ele>
        <time>2026-02-26T09:50:37.708Z</time>
      </trkpt>
      <trkpt lat="45.31063" lon="4.10206">
        <ele>570.9</ele>
        <time>2026-02-26T09:50:44.395Z</time>
      </trkpt>
      <trkpt lat="45.3111" lon="4.10224">
        <ele>578.8</ele>
        <time>2026-02-26T09:50:49.811Z</time>
      </trkpt>
      <trkpt lat="45.31149" lon="4.10207">
        <ele>595.2</ele>
        <time>2026-02-26T09:50:54.619Z</time>
      </trkpt>
      <trkpt lat="45.31194" lon="4.10198">
        <ele>604.6</ele>
        <time>2026-02-26T09:50:59.918Z</time>
      </trkpt>
      <trkpt lat="45.31238" lon="4.10178">
        <ele>613.3</ele>
        <time>2026-02-26T09:51:05.278Z</time>
      </trkpt>
      <trkpt lat="45.31299" lon="4.1028">
        <ele>573.5</ele>
        <time>2026-02-26T09:51:15.994Z</time>
      </trkpt>
      <trkpt lat="45.31348" lon="4.1028">
        <ele>561.9</ele>
        <time>2026-02-26T09:51:21.675Z</time>
      </trkpt>
      <trkpt lat="45.31383" lon="4.10253">
        <ele>560</ele>
        <time>2026-02-26T09:51:26.258Z</time>
      </trkpt>
      <trkpt lat="45.31399" lon="4.10191">
        <ele>570.7</ele>
        <time>2026-02-26T09:51:31.596Z</time>
      </trkpt>
      <trkpt lat="45.3144" lon="4.1012">
        <ele>589.8</ele>
        <time>2026-02-26T09:51:38.910Z</time>
      </trkpt>
      <trkpt lat="45.31461" lon="4.10056">
        <ele>610.4</ele>
        <time>2026-02-26T09:51:44.492Z</time>
      </trkpt>
      <trkpt lat="45.31476" lon="4.10012">
        <ele>624</ele>
        <time>2026-02-26T09:51:48.360Z</time>
      </trkpt>
      <trkpt lat="45.31522" lon="4.09967">
        <ele>625.5</ele>
        <time>2026-02-26T09:51:54.696Z</time>
      </trkpt>
      <trkpt lat="45.31574" lon="4.09932">
        <ele>616.2</ele>
        <time>2026-02-26T09:52:01.070Z</time>
      </trkpt>
      <trkpt lat="45.31626" lon="4.09885">
        <ele>610.2</ele>
        <time>2026-02-26T09:52:08.015Z</time>
      </trkpt>
      <trkpt lat="45.31663" lon="4.09867">
        <ele>603</ele>
        <time>2026-02-26T09:52:12.355Z</time>
      </trkpt>
      <trkpt lat="45.31724" lon="4.09912">
        <ele>604.2</ele>
        <time>2026-02-26T09:52:20.459Z</time>
      </trkpt>
      <trkpt lat="45.31758" lon="4.09891">
        <ele>612.9</ele>
        <time>2026-02-26T09:52:24.571Z</time>
      </trkpt>
      <trkpt lat="45.31843" lon="4.09865">
        <ele>641.1</ele>
        <time>2026-02-26T09:52:34.224Z</time>
      </trkpt>
      <trkpt lat="45.3187" lon="4.09844">
        <ele>642.6</ele>
        <time>2026-02-26T09:52:37.679Z</time>
      </trkpt>
      <trkpt lat="45.31904" lon="4.09789">
        <ele>636.2</ele>
        <time>2026-02-26T09:52:43.487Z</time>
      </trkpt>
      <trkpt lat="45.3198" lon="4.09784">
        <ele>659.9</ele>
        <time>2026-02-26T09:52:51.964Z</time>
      </trkpt>
      <trkpt lat="45.32031" lon="4.09782">
        <ele>679.6</ele>
        <time>2026-02-26T09:52:57.751Z</time>
      </trkpt>
      <trkpt lat="45.32087" lon="4.09713">
        <ele>686.7</ele>
        <time>2026-02-26T09:53:05.961Z</time>
      </trkpt>
      <trkpt lat="45.3214" lon="4.09646">
        <ele>692.8</ele>
        <time>2026-02-26T09:53:13.936Z</time>
      </trkpt>
      <trkpt lat="45.32185" lon="4.09611">
        <ele>703</ele>
        <time>2026-02-26T09:53:19.900Z</time>
      </trkpt>
      <trkpt lat="45.3221" lon="4.09577">
        <ele>704.9</ele>
        <time>2026-02-26T09:53:23.809Z</time>
      </trkpt>
      <trkpt lat="45.32221" lon="4.0954">
        <ele>703.9</ele>
        <time>2026-02-26T09:53:26.928Z</time>
      </trkpt>
      <trkpt lat="45.32258" lon="4.09531">
        <ele>709.6</ele>
        <time>2026-02-26T09:53:31.221Z</time>
      </trkpt>
      <trkpt lat="45.32311" lon="4.09438">
        <ele>702.7</ele>
        <time>2026-02-26T09:53:40.591Z</time>
      </trkpt>
      <trkpt lat="45.32331" lon="4.09435">
        <ele>701.4</ele>
        <time>2026-02-26T09:53:42.879Z</time>
      </trkpt>
      <trkpt lat="45.3236" lon="4.09382">
        <ele>694.5</ele>
        <time>2026-02-26T09:53:48.153Z</time>
      </trkpt>
      <trkpt lat="45.32397" lon="4.09202">
        <ele>674.7</ele>
        <time>2026-02-26T09:54:02.769Z</time>
      </trkpt>
      <trkpt lat="45.32416" lon="4.09096">
        <ele>674.2</ele>
        <time>2026-02-26T09:54:11.321Z</time>
      </trkpt>
      <trkpt lat="45.32427" lon="4.08994">
        <ele>687.3</ele>
        <time>2026-02-26T09:54:19.508Z</time>
      </trkpt>
      <trkpt lat="45.32432" lon="4.08894">
        <ele>706.2</ele>
        <time>2026-02-26T09:54:27.530Z</time>
      </trkpt>
      <trkpt lat="45.32431" lon="4.08805">
        <ele>717.7</ele>
        <time>2026-02-26T09:54:34.505Z</time>
      </trkpt>
      <trkpt lat="45.32416" lon="4.08732">
        <ele>729</ele>
        <time>2026-02-26T09:54:40.540Z</time>
      </trkpt>
      <trkpt lat="45.32406" lon="4.08685">
        <ele>735.7</ele>
        <time>2026-02-26T09:54:44.410Z</time>
      </trkpt>
      <trkpt lat="45.32354" lon="4.08573">
        <ele>753.9</ele>
        <time>2026-02-26T09:54:55.008Z</time>
      </trkpt>
      <trkpt lat="45.32325" lon="4.08497">
        <ele>765.6</ele>
        <time>2026-02-26T09:55:01.908Z</time>
      </trkpt>
      <trkpt lat="45.32309" lon="4.08409">
        <ele>774.9</ele>
        <time>2026-02-26T09:55:09.050Z</time>
      </trkpt>
      <trkpt lat="45.32307" lon="4.08345">
        <ele>777.6</ele>
        <time>2026-02-26T09:55:14.115Z</time>
      </trkpt>
      <trkpt lat="45.32304" lon="4.08292">
        <ele>777.6</ele>
        <time>2026-02-26T09:55:18.287Z</time>
      </trkpt>
      <trkpt lat="45.32319" lon="4.08211">
        <ele>773</ele>
        <time>2026-02-26T09:55:24.815Z</time>
      </trkpt>
      <trkpt lat="45.32303" lon="4.08101">
        <ele>779.3</ele>
        <time>2026-02-26T09:55:33.615Z</time>
      </trkpt>
      <trkpt lat="45.32313" lon="4.08021">
        <ele>784.6</ele>
        <time>2026-02-26T09:55:39.998Z</time>
      </trkpt>
      <trkpt lat="45.32319" lon="4.07946">
        <ele>793.9</ele>
        <time>2026-02-26T09:55:45.886Z</time>
      </trkpt>
      <trkpt lat="45.32263" lon="4.07923">
        <ele>802.5</ele>
        <time>2026-02-26T09:55:52.415Z</time>
      </trkpt>
      <trkpt lat="45.32215" lon="4.07901">
        <ele>805.8</ele>
        <time>2026-02-26T09:55:58.001Z</time>
      </trkpt>
      <trkpt lat="45.32155" lon="4.07908">
        <ele>805.6</ele>
        <time>2026-02-26T09:56:04.659Z</time>
      </trkpt>
      <trkpt lat="45.3209" lon="4.07937">
        <ele>798.9</ele>
        <time>2026-02-26T09:56:12.244Z</time>
      </trkpt>
      <trkpt lat="45.3207" lon="4.08011">
        <ele>790.8</ele>
        <time>2026-02-26T09:56:18.481Z</time>
      </trkpt>
      <trkpt lat="45.32063" lon="4.08046">
        <ele>786.5</ele>
        <time>2026-02-26T09:56:21.352Z</time>
      </trkpt>
      <trkpt lat="45.32036" lon="4.08081">
        <ele>780.8</ele>
        <time>2026-02-26T09:56:25.490Z</time>
      </trkpt>
      <trkpt lat="45.32025" lon="4.08186">
        <ele>770.6</ele>
        <time>2026-02-26T09:56:33.784Z</time>
      </trkpt>
      <trkpt lat="45.31993" lon="4.08235">
        <ele>764</ele>
        <time>2026-02-26T09:56:38.991Z</time>
      </trkpt>
      <trkpt lat="45.31966" lon="4.08242">
        <ele>764.7</ele>
        <time>2026-02-26T09:56:42.140Z</time>
      </trkpt>
      <trkpt lat="45.31928" lon="4.08235">
        <ele>767.5</ele>
        <time>2026-02-26T09:56:46.400Z</time>
      </trkpt>
      <trkpt lat="45.31872" lon="4.08249">
        <ele>767.2</ele>
        <time>2026-02-26T09:56:52.626Z</time>
      </trkpt>
      <trkpt lat="45.31845" lon="4.08308">
        <ele>761.4</ele>
        <time>2026-02-26T09:56:58.258Z</time>
      </trkpt>
      <trkpt lat="45.31843" lon="4.08412">
        <ele>759.2</ele>
        <time>2026-02-26T09:57:06.372Z</time>
      </trkpt>
      <trkpt lat="45.31861" lon="4.08531">
        <ele>759.9</ele>
        <time>2026-02-26T09:57:15.875Z</time>
      </trkpt>
      <trkpt lat="45.31844" lon="4.08646">
        <ele>751.3</ele>
        <time>2026-02-26T09:57:25.045Z</time>
      </trkpt>
      <trkpt lat="45.31825" lon="4.0875">
        <ele>751.7</ele>
        <time>2026-02-26T09:57:33.480Z</time>
      </trkpt>
      <trkpt lat="45.3183" lon="4.08835">
        <ele>750.7</ele>
        <time>2026-02-26T09:57:40.154Z</time>
      </trkpt>
      <trkpt lat="45.31833" lon="4.0893">
        <ele>745.9</ele>
        <time>2026-02-26T09:57:47.631Z</time>
      </trkpt>
      <trkpt lat="45.31785" lon="4.08969">
        <ele>753</ele>
        <time>2026-02-26T09:57:53.786Z</time>
      </trkpt>
      <trkpt lat="45.31779" lon="4.08929">
        <ele>755.4</ele>
        <time>2026-02-26T09:57:57.022Z</time>
      </trkpt>
      <trkpt lat="45.31775" lon="4.08837">
        <ele>761.7</ele>
        <time>2026-02-26T09:58:04.243Z</time>
      </trkpt>
      <trkpt lat="45.31721" lon="4.08783">
        <ele>769.7</ele>
        <time>2026-02-26T09:58:11.614Z</time>
      </trkpt>
      <trkpt lat="45.31674" lon="4.08856">
        <ele>771.1</ele>
        <time>2026-02-26T09:58:19.370Z</time>
      </trkpt>
      <trkpt lat="45.31636" lon="4.08893">
        <ele>771.9</ele>
        <time>2026-02-26T09:58:24.485Z</time>
      </trkpt>
      <trkpt lat="45.31592" lon="4.08984">
        <ele>764.8</ele>
        <time>2026-02-26T09:58:33.117Z</time>
      </trkpt>
      <trkpt lat="45.31552" lon="4.09001">
        <ele>765.2</ele>
        <time>2026-02-26T09:58:37.758Z</time>
      </trkpt>
      <trkpt lat="45.31506" lon="4.09111">
        <ele>755.6</ele>
        <time>2026-02-26T09:58:47.874Z</time>
      </trkpt>
      <trkpt lat="45.31466" lon="4.09204">
        <ele>751.5</ele>
        <time>2026-02-26T09:58:56.367Z</time>
      </trkpt>
      <trkpt lat="45.3144" lon="4.09254">
        <ele>744.8</ele>
        <time>2026-02-26T09:59:01.277Z</time>
      </trkpt>
      <trkpt lat="45.31407" lon="4.09271">
        <ele>743.7</ele>
        <time>2026-02-26T09:59:05.126Z</time>
      </trkpt>
      <trkpt lat="45.31372" lon="4.09201">
        <ele>758.4</ele>
        <time>2026-02-26T09:59:11.932Z</time>
      </trkpt>
      <trkpt lat="45.3136" lon="4.09064">
        <ele>772.1</ele>
        <time>2026-02-26T09:59:22.702Z</time>
      </trkpt>
      <trkpt lat="45.31374" lon="4.08975">
        <ele>774.6</ele>
        <time>2026-02-26T09:59:29.903Z</time>
      </trkpt>
      <trkpt lat="45.31356" lon="4.0895">
        <ele>773.9</ele>
        <time>2026-02-26T09:59:32.702Z</time>
      </trkpt>
      <trkpt lat="45.31248" lon="4.0897">
        <ele>759.7</ele>
        <time>2026-02-26T09:59:44.818Z</time>
      </trkpt>
      <trkpt lat="45.31228" lon="4.0893">
        <ele>753.5</ele>
        <time>2026-02-26T09:59:48.724Z</time>
      </trkpt>
      <trkpt lat="45.31238" lon="4.0887">
        <ele>757</ele>
        <time>2026-02-26T09:59:53.654Z</time>
      </trkpt>
      <trkpt lat="45.31196" lon="4.08818">
        <ele>763.5</ele>
        <time>2026-02-26T09:59:59.924Z</time>
      </trkpt>
      <trkpt lat="45.3117" lon="4.0877">
        <ele>770.5</ele>
        <time>2026-02-26T10:00:04.640Z</time>
      </trkpt>
      <trkpt lat="45.31135" lon="4.08657">
        <ele>773.2</ele>
        <time>2026-02-26T10:00:14.352Z</time>
      </trkpt>
      <trkpt lat="45.31117" lon="4.08603">
        <ele>767.8</ele>
        <time>2026-02-26T10:00:19.065Z</time>
      </trkpt>
      <trkpt lat="45.31093" lon="4.08567">
        <ele>760.3</ele>
        <time>2026-02-26T10:00:22.896Z</time>
      </trkpt>
      <trkpt lat="45.3109" lon="4.08511">
        <ele>757.9</ele>
        <time>2026-02-26T10:00:27.318Z</time>
      </trkpt>
      <trkpt lat="45.31042" lon="4.08504">
        <ele>750.5</ele>
        <time>2026-02-26T10:00:32.721Z</time>
      </trkpt>
      <trkpt lat="45.31002" lon="4.08569">
        <ele>741.3</ele>
        <time>2026-02-26T10:00:39.522Z</time>
      </trkpt>
      <trkpt lat="45.30969" lon="4.0863">
        <ele>734.7</ele>
        <time>2026-02-26T10:00:45.602Z</time>
      </trkpt>
      <trkpt lat="45.30931" lon="4.08629">
        <ele>729.6</ele>
        <time>2026-02-26T10:00:49.862Z</time>
      </trkpt>
      <trkpt lat="45.30881" lon="4.08758">
        <ele>718.8</ele>
        <time>2026-02-26T10:01:01.438Z</time>
      </trkpt>
      <trkpt lat="45.30853" lon="4.08822">
        <ele>710.5</ele>
        <time>2026-02-26T10:01:07.278Z</time>
      </trkpt>
      <trkpt lat="45.30816" lon="4.08862">
        <ele>706.8</ele>
        <time>2026-02-26T10:01:12.541Z</time>
      </trkpt>
      <trkpt lat="45.30738" lon="4.08878">
        <ele>718.6</ele>
        <time>2026-02-26T10:01:21.306Z</time>
      </trkpt>
      <trkpt lat="45.3063" lon="4.08898">
        <ele>734.6</ele>
        <time>2026-02-26T10:01:33.397Z</time>
      </trkpt>
      <trkpt lat="45.3055" lon="4.08947">
        <ele>734.1</ele>
        <time>2026-02-26T10:01:43.091Z</time>
      </trkpt>
      <trkpt lat="45.30456" lon="4.09021">
        <ele>715.7</ele>
        <time>2026-02-26T10:01:55.060Z</time>
      </trkpt>
      <trkpt lat="45.30419" lon="4.09156">
        <ele>689.3</ele>
        <time>2026-02-26T10:02:06.597Z</time>
      </trkpt>
      <trkpt lat="45.30396" lon="4.09221">
        <ele>677</ele>
        <time>2026-02-26T10:02:12.425Z</time>
      </trkpt>
      <trkpt lat="45.30347" lon="4.09212">
        <ele>673.2</ele>
        <time>2026-02-26T10:02:17.866Z</time>
      </trkpt>
      <trkpt lat="45.30245" lon="4.09167">
        <ele>686.2</ele>
        <time>2026-02-26T10:02:29.709Z</time>
      </trkpt>
      <trkpt lat="45.30181" lon="4.09078">
        <ele>686.3</ele>
        <time>2026-02-26T10:02:39.728Z</time>
      </trkpt>
      <trkpt lat="45.30061" lon="4.09129">
        <ele>659.2</ele>
        <time>2026-02-26T10:02:53.734Z</time>
      </trkpt>
      <trkpt lat="45.30055" lon="4.09158">
        <ele>654.7</ele>
        <time>2026-02-26T10:02:56.125Z</time>
      </trkpt>
      <trkpt lat="45.30078" lon="4.09196">
        <ele>652.1</ele>
        <time>2026-02-26T10:03:00.071Z</time>
      </trkpt>
      <trkpt lat="45.30093" lon="4.09256">
        <ele>645.3</ele>
        <time>2026-02-26T10:03:05.078Z</time>
      </trkpt>
      <trkpt lat="45.30072" lon="4.09289">
        <ele>635.2</ele>
        <time>2026-02-26T10:03:08.725Z</time>
      </trkpt>
      <trkpt lat="45.30069" lon="4.09361">
        <ele>619.2</ele>
        <time>2026-02-26T10:03:14.589Z</time>
      </trkpt>
      <trkpt lat="45.3009" lon="4.09415">
        <ele>610.7</ele>
        <time>2026-02-26T10:03:19.475Z</time>
      </trkpt>
      <trkpt lat="45.30053" lon="4.09438">
        <ele>598.2</ele>
        <time>2026-02-26T10:03:24.191Z</time>
      </trkpt>
      <trkpt lat="45.30012" lon="4.09436">
        <ele>592.8</ele>
        <time>2026-02-26T10:03:28.702Z</time>
      </trkpt>
      <trkpt lat="45.29999" lon="4.09382">
        <ele>602.7</ele>
        <time>2026-02-26T10:03:33.242Z</time>
      </trkpt>
      <trkpt lat="45.29991" lon="4.09356">
        <ele>606.8</ele>
        <time>2026-02-26T10:03:35.474Z</time>
      </trkpt>
      <trkpt lat="45.29979" lon="4.09345">
        <ele>607.4</ele>
        <time>2026-02-26T10:03:37.069Z</time>
      </trkpt>
      <trkpt lat="45.29921" lon="4.09379">
        <ele>595.9</ele>
        <time>2026-02-26T10:03:44.165Z</time>
      </trkpt>
      <trkpt lat="45.29876" lon="4.09429">
        <ele>583.5</ele>
        <time>2026-02-26T10:03:50.653Z</time>
      </trkpt>
      <trkpt lat="45.29809" lon="4.0948">
        <ele>572.8</ele>
        <time>2026-02-26T10:03:59.033Z</time>
      </trkpt>
      <trkpt lat="45.29757" lon="4.09475">
        <ele>571.9</ele>
        <time>2026-02-26T10:04:04.826Z</time>
      </trkpt>
      <trkpt lat="45.29728" lon="4.09458">
        <ele>575.1</ele>
        <time>2026-02-26T10:04:08.423Z</time>
      </trkpt>
      <trkpt lat="45.29682" lon="4.09459">
        <ele>574.6</ele>
        <time>2026-02-26T10:04:13.480Z</time>
      </trkpt>
      <trkpt lat="45.2961" lon="4.0956">
        <ele>557.3</ele>
        <time>2026-02-26T10:04:24.894Z</time>
      </trkpt>
      <trkpt lat="45.29578" lon="4.09476">
        <ele>564.2</ele>
        <time>2026-02-26T10:04:32.441Z</time>
      </trkpt>
      <trkpt lat="45.2954" lon="4.09368">
        <ele>574.5</ele>
        <time>2026-02-26T10:04:41.970Z</time>
      </trkpt>
      <trkpt lat="45.29436" lon="4.09275">
        <ele>578</ele>
        <time>2026-02-26T10:04:55.605Z</time>
      </trkpt>
      <trkpt lat="45.29438" lon="4.09222">
        <ele>588.1</ele>
        <time>2026-02-26T10:04:59.797Z</time>
      </trkpt>
      <trkpt lat="45.29467" lon="4.09117">
        <ele>604.7</ele>
        <time>2026-02-26T10:05:08.603Z</time>
      </trkpt>
      <trkpt lat="45.29505" lon="4.09067">
        <ele>609.8</ele>
        <time>2026-02-26T10:05:14.362Z</time>
      </trkpt>
      <trkpt lat="45.29537" lon="4.0902">
        <ele>606.2</ele>
        <time>2026-02-26T10:05:19.648Z</time>
      </trkpt>
      <trkpt lat="45.29624" lon="4.08979">
        <ele>612.6</ele>
        <time>2026-02-26T10:05:29.776Z</time>
      </trkpt>
      <trkpt lat="45.2968" lon="4.08947">
        <ele>620.9</ele>
        <time>2026-02-26T10:05:36.575Z</time>
      </trkpt>
      <trkpt lat="45.2974" lon="4.08915">
        <ele>635.9</ele>
        <time>2026-02-26T10:05:43.841Z</time>
      </trkpt>
      <trkpt lat="45.29779" lon="4.08863">
        <ele>634.6</ele>
        <time>2026-02-26T10:05:49.761Z</time>
      </trkpt>
      <trkpt lat="45.29826" lon="4.08784">
        <ele>632.3</ele>
        <time>2026-02-26T10:05:57.882Z</time>
      </trkpt>
      <trkpt lat="45.29881" lon="4.0874">
        <ele>645.1</ele>
        <time>2026-02-26T10:06:04.980Z</time>
      </trkpt>
      <trkpt lat="45.29918" lon="4.08754">
        <ele>661.3</ele>
        <time>2026-02-26T10:06:09.583Z</time>
      </trkpt>
      <trkpt lat="45.29906" lon="4.08683">
        <ele>646.2</ele>
        <time>2026-02-26T10:06:15.517Z</time>
      </trkpt>
      <trkpt lat="45.29941" lon="4.08616">
        <ele>640.3</ele>
        <time>2026-02-26T10:06:22.067Z</time>
      </trkpt>
      <trkpt lat="45.29972" lon="4.08542">
        <ele>627.8</ele>
        <time>2026-02-26T10:06:28.839Z</time>
      </trkpt>
      <trkpt lat="45.30003" lon="4.08497">
        <ele>622.9</ele>
        <time>2026-02-26T10:06:33.791Z</time>
      </trkpt>
      <trkpt lat="45.30056" lon="4.08498">
        <ele>637.8</ele>
        <time>2026-02-26T10:06:39.901Z</time>
      </trkpt>
      <trkpt lat="45.30055" lon="4.08473">
        <ele>631.8</ele>
        <time>2026-02-26T10:06:41.962Z</time>
      </trkpt>
      <trkpt lat="45.30092" lon="4.08446">
        <ele>636.4</ele>
        <time>2026-02-26T10:06:46.650Z</time>
      </trkpt>
      <trkpt lat="45.30144" lon="4.08407">
        <ele>648.1</ele>
        <time>2026-02-26T10:06:53.227Z</time>
      </trkpt>
      <trkpt lat="45.30141" lon="4.08338">
        <ele>630</ele>
        <time>2026-02-26T10:06:58.747Z</time>
      </trkpt>
      <trkpt lat="45.30164" lon="4.08237">
        <ele>623.9</ele>
        <time>2026-02-26T10:07:07.032Z</time>
      </trkpt>
      <trkpt lat="45.30106" lon="4.08318">
        <ele>617</ele>
        <time>2026-02-26T10:07:16.113Z</time>
      </trkpt>
      <trkpt lat="45.30026" lon="4.08335">
        <ele>595.4</ele>
        <time>2026-02-26T10:07:25.341Z</time>
      </trkpt>
      <trkpt lat="45.29978" lon="4.08389">
        <ele>593.1</ele>
        <time>2026-02-26T10:07:32.182Z</time>
      </trkpt>
      <trkpt lat="45.29926" lon="4.08407">
        <ele>583.1</ele>
        <time>2026-02-26T10:07:38.117Z</time>
      </trkpt>
      <trkpt lat="45.2989" lon="4.08444">
        <ele>584.5</ele>
        <time>2026-02-26T10:07:43.049Z</time>
      </trkpt>
      <trkpt lat="45.29859" lon="4.08523">
        <ele>594.8</ele>
        <time>2026-02-26T10:07:50.166Z</time>
      </trkpt>
      <trkpt lat="45.29832" lon="4.08686">
        <ele>615.8</ele>
        <time>2026-02-26T10:08:03.403Z</time>
      </trkpt>
      <trkpt lat="45.29757" lon="4.08768">
        <ele>606.3</ele>
        <time>2026-02-26T10:08:14.004Z</time>
      </trkpt>
      <trkpt lat="45.29712" lon="4.08835">
        <ele>605.3</ele>
        <time>2026-02-26T10:08:21.255Z</time>
      </trkpt>
      <trkpt lat="45.29617" lon="4.08876">
        <ele>576.9</ele>
        <time>2026-02-26T10:08:32.453Z</time>
      </trkpt>
      <trkpt lat="45.29519" lon="4.08867">
        <ele>549.4</ele>
        <time>2026-02-26T10:08:43.374Z</time>
      </trkpt>
      <trkpt lat="45.29489" lon="4.08865">
        <ele>544.7</ele>
        <time>2026-02-26T10:08:46.650Z</time>
      </trkpt>
      <trkpt lat="45.29408" lon="4.08907">
        <ele>547.2</ele>
        <time>2026-02-26T10:08:56.335Z</time>
      </trkpt>
      <trkpt lat="45.2934" lon="4.08885">
        <ele>531</ele>
        <time>2026-02-26T10:09:04.063Z</time>
      </trkpt>
      <trkpt lat="45.29254" lon="4.08953">
        <ele>526.1</ele>
        <time>2026-02-26T10:09:15.089Z</time>
      </trkpt>
      <trkpt lat="45.29181" lon="4.09016">
        <ele>530</ele>
        <time>2026-02-26T10:09:24.586Z</time>
      </trkpt>
      <trkpt lat="45.29105" lon="4.09001">
        <ele>551.8</ele>
        <time>2026-02-26T10:09:33.389Z</time>
      </trkpt>
      <trkpt lat="45.29054" lon="4.09">
        <ele>562.9</ele>
        <time>2026-02-26T10:09:39.146Z</time>
      </trkpt>
      <trkpt lat="45.29008" lon="4.08948">
        <ele>577.9</ele>
        <time>2026-02-26T10:09:45.768Z</time>
      </trkpt>
      <trkpt lat="45.29046" lon="4.08869">
        <ele>588.9</ele>
        <time>2026-02-26T10:09:53.376Z</time>
      </trkpt>
      <trkpt lat="45.2909" lon="4.08795">
        <ele>596.9</ele>
        <time>2026-02-26T10:10:01.076Z</time>
      </trkpt>
      <trkpt lat="45.29108" lon="4.08728">
        <ele>604.2</ele>
        <time>2026-02-26T10:10:06.797Z</time>
      </trkpt>
      <trkpt lat="45.29129" lon="4.08687">
        <ele>606.2</ele>
        <time>2026-02-26T10:10:10.798Z</time>
      </trkpt>
      <trkpt lat="45.29166" lon="4.0863">
        <ele>607.8</ele>
        <time>2026-02-26T10:10:16.916Z</time>
      </trkpt>
      <trkpt lat="45.29191" lon="4.08588">
        <ele>613.6</ele>
        <time>2026-02-26T10:10:21.219Z</time>
      </trkpt>
      <trkpt lat="45.29226" lon="4.08531">
        <ele>620.8</ele>
        <time>2026-02-26T10:10:27.188Z</time>
      </trkpt>
      <trkpt lat="45.29232" lon="4.08512">
        <ele>624.6</ele>
        <time>2026-02-26T10:10:28.812Z</time>
      </trkpt>
      <trkpt lat="45.29235" lon="4.08485">
        <ele>630.9</ele>
        <time>2026-02-26T10:10:31.032Z</time>
      </trkpt>
      <trkpt lat="45.29274" lon="4.08425">
        <ele>636</ele>
        <time>2026-02-26T10:10:37.446Z</time>
      </trkpt>
      <trkpt lat="45.29274" lon="4.08378">
        <ele>638.5</ele>
        <time>2026-02-26T10:10:41.078Z</time>
      </trkpt>
      <trkpt lat="45.2927" lon="4.08322">
        <ele>641</ele>
        <time>2026-02-26T10:10:45.493Z</time>
      </trkpt>
      <trkpt lat="45.29253" lon="4.08187">
        <ele>646.8</ele>
        <time>2026-02-26T10:10:56.289Z</time>
      </trkpt>
      <trkpt lat="45.29261" lon="4.08068">
        <ele>656.6</ele>
        <time>2026-02-26T10:11:05.651Z</time>
      </trkpt>
      <trkpt lat="45.29292" lon="4.07954">
        <ele>664.1</ele>
        <time>2026-02-26T10:11:15.307Z</time>
      </trkpt>
      <trkpt lat="45.29318" lon="4.07891">
        <ele>666.7</ele>
        <time>2026-02-26T10:11:20.971Z</time>
      </trkpt>
      <trkpt lat="45.29363" lon="4.07838">
        <ele>667.4</ele>
        <time>2026-02-26T10:11:27.548Z</time>
      </trkpt>
      <trkpt lat="45.29395" lon="4.07796">
        <ele>670.1</ele>
        <time>2026-02-26T10:11:32.372Z</time>
      </trkpt>
      <trkpt lat="45.29426" lon="4.07721">
        <ele>681.1</ele>
        <time>2026-02-26T10:11:39.251Z</time>
      </trkpt>
      <trkpt lat="45.29447" lon="4.07665">
        <ele>692.2</ele>
        <time>2026-02-26T10:11:44.293Z</time>
      </trkpt>
      <trkpt lat="45.29467" lon="4.07641">
        <ele>696</ele>
        <time>2026-02-26T10:11:47.161Z</time>
      </trkpt>
      <trkpt lat="45.29474" lon="4.07584">
        <ele>702.3</ele>
        <time>2026-02-26T10:11:51.816Z</time>
      </trkpt>
      <trkpt lat="45.29561" lon="4.07641">
        <ele>711.3</ele>
        <time>2026-02-26T10:12:02.470Z</time>
      </trkpt>
      <trkpt lat="45.29639" lon="4.07613">
        <ele>722.9</ele>
        <time>2026-02-26T10:12:11.549Z</time>
      </trkpt>
      <trkpt lat="45.29672" lon="4.07596">
        <ele>724.6</ele>
        <time>2026-02-26T10:12:15.577Z</time>
      </trkpt>
      <trkpt lat="45.29716" lon="4.07592">
        <ele>708.7</ele>
        <time>2026-02-26T10:12:20.422Z</time>
      </trkpt>
      <trkpt lat="45.29743" lon="4.07586">
        <ele>699.3</ele>
        <time>2026-02-26T10:12:23.473Z</time>
      </trkpt>
      <trkpt lat="45.29772" lon="4.07591">
        <ele>686.5</ele>
        <time>2026-02-26T10:12:26.851Z</time>
      </trkpt>
      <trkpt lat="45.29786" lon="4.07541">
        <ele>685.9</ele>
        <time>2026-02-26T10:12:31.117Z</time>
      </trkpt>
      <trkpt lat="45.29802" lon="4.07508">
        <ele>682.7</ele>
        <time>2026-02-26T10:12:34.263Z</time>
      </trkpt>
      <trkpt lat="45.29791" lon="4.07445">
        <ele>689.8</ele>
        <time>2026-02-26T10:12:39.381Z</time>
      </trkpt>
      <trkpt lat="45.29781" lon="4.07393">
        <ele>697.6</ele>
        <time>2026-02-26T10:12:43.629Z</time>
      </trkpt>
      <trkpt lat="45.29773" lon="4.07355">
        <ele>704.1</ele>
        <time>2026-02-26T10:12:46.748Z</time>
      </trkpt>
      <trkpt lat="45.29803" lon="4.07316">
        <ele>697.1</ele>
        <time>2026-02-26T10:12:51.203Z</time>
      </trkpt>
      <trkpt lat="45.29825" lon="4.07303">
        <ele>691.4</ele>
        <time>2026-02-26T10:12:53.967Z</time>
      </trkpt>
      <trkpt lat="45.2984" lon="4.07277">
        <ele>691.3</ele>
        <time>2026-02-26T10:12:56.585Z</time>
      </trkpt>
      <trkpt lat="45.29841" lon="4.07246">
        <ele>696.9</ele>
        <time>2026-02-26T10:12:59.055Z</time>
      </trkpt>
      <trkpt lat="45.29867" lon="4.07223">
        <ele>694</ele>
        <time>2026-02-26T10:13:02.504Z</time>
      </trkpt>
      <trkpt lat="45.29905" lon="4.07216">
        <ele>685.6</ele>
        <time>2026-02-26T10:13:06.876Z</time>
      </trkpt>
      <trkpt lat="45.29913" lon="4.07185">
        <ele>686.4</ele>
        <time>2026-02-26T10:13:09.501Z</time>
      </trkpt>
      <trkpt lat="45.29853" lon="4.07121">
        <ele>701.7</ele>
        <time>2026-02-26T10:13:17.875Z</time>
      </trkpt>
      <trkpt lat="45.29793" lon="4.0708">
        <ele>713.8</ele>
        <time>2026-02-26T10:13:25.384Z</time>
      </trkpt>
      <trkpt lat="45.29759" lon="4.07061">
        <ele>719.1</ele>
        <time>2026-02-26T10:13:29.436Z</time>
      </trkpt>
      <trkpt lat="45.29718" lon="4.07024">
        <ele>726.1</ele>
        <time>2026-02-26T10:13:34.925Z</time>
      </trkpt>
      <trkpt lat="45.29654" lon="4.07022">
        <ele>740.4</ele>
        <time>2026-02-26T10:13:42.150Z</time>
      </trkpt>
      <trkpt lat="45.29626" lon="4.07026">
        <ele>744.1</ele>
        <time>2026-02-26T10:13:45.279Z</time>
      </trkpt>
      <trkpt lat="45.29626" lon="4.07011">
        <ele>742.7</ele>
        <time>2026-02-26T10:13:46.431Z</time>
      </trkpt>
      <trkpt lat="45.29579" lon="4.06977">
        <ele>744.9</ele>
        <time>2026-02-26T10:13:52.349Z</time>
      </trkpt>
      <trkpt lat="45.29562" lon="4.06883">
        <ele>736.9</ele>
        <time>2026-02-26T10:13:59.979Z</time>
      </trkpt>
      <trkpt lat="45.29518" lon="4.07011">
        <ele>744.3</ele>
        <time>2026-02-26T10:14:11.128Z</time>
      </trkpt>
      <trkpt lat="45.29475" lon="4.06975">
        <ele>738.9</ele>
        <time>2026-02-26T10:14:16.656Z</time>
      </trkpt>
      <trkpt lat="45.29442" lon="4.0688">
        <ele>736.5</ele>
        <time>2026-02-26T10:14:24.928Z</time>
      </trkpt>
      <trkpt lat="45.29437" lon="4.06762">
        <ele>742.1</ele>
        <time>2026-02-26T10:14:34.212Z</time>
      </trkpt>
      <trkpt lat="45.29406" lon="4.06702">
        <ele>746.5</ele>
        <time>2026-02-26T10:14:40.055Z</time>
      </trkpt>
      <trkpt lat="45.29384" lon="4.06591">
        <ele>750.2</ele>
        <time>2026-02-26T10:14:49.043Z</time>
      </trkpt>
      <trkpt lat="45.29355" lon="4.06487">
        <ele>745.2</ele>
        <time>2026-02-26T10:14:57.901Z</time>
      </trkpt>
      <trkpt lat="45.29286" lon="4.0645">
        <ele>732.5</ele>
        <time>2026-02-26T10:15:06.228Z</time>
      </trkpt>
      <trkpt lat="45.29206" lon="4.06442">
        <ele>731.2</ele>
        <time>2026-02-26T10:15:15.166Z</time>
      </trkpt>
      <trkpt lat="45.29161" lon="4.06413">
        <ele>728.7</ele>
        <time>2026-02-26T10:15:20.787Z</time>
      </trkpt>
      <trkpt lat="45.29142" lon="4.06381">
        <ele>718.9</ele>
        <time>2026-02-26T10:15:24.284Z</time>
      </trkpt>
      <trkpt lat="45.29086" lon="4.0637">
        <ele>713.2</ele>
        <time>2026-02-26T10:15:30.538Z</time>
      </trkpt>
      <trkpt lat="45.29023" lon="4.06423">
        <ele>716.4</ele>
        <time>2026-02-26T10:15:38.665Z</time>
      </trkpt>
      <trkpt lat="45.29042" lon="4.06484">
        <ele>732.5</ele>
        <time>2026-02-26T10:15:44.008Z</time>
      </trkpt>
      <trkpt lat="45.29041" lon="4.06532">
        <ele>738.3</ele>
        <time>2026-02-26T10:15:47.813Z</time>
      </trkpt>
      <trkpt lat="45.28997" lon="4.06658">
        <ele>738.5</ele>
        <time>2026-02-26T10:15:58.769Z</time>
      </trkpt>
      <trkpt lat="45.28955" lon="4.06722">
        <ele>731.4</ele>
        <time>2026-02-26T10:16:05.618Z</time>
      </trkpt>
      <trkpt lat="45.28945" lon="4.06754">
        <ele>732</ele>
        <time>2026-02-26T10:16:08.421Z</time>
      </trkpt>
      <trkpt lat="45.28963" lon="4.06773">
        <ele>733.8</ele>
        <time>2026-02-26T10:16:10.932Z</time>
      </trkpt>
      <trkpt lat="45.2896" lon="4.06909">
        <ele>721.9</ele>
        <time>2026-02-26T10:16:21.611Z</time>
      </trkpt>
      <trkpt lat="45.28977" lon="4.06996">
        <ele>703.9</ele>
        <time>2026-02-26T10:16:28.706Z</time>
      </trkpt>
      <trkpt lat="45.29003" lon="4.07063">
        <ele>696.2</ele>
        <time>2026-02-26T10:16:34.833Z</time>
      </trkpt>
      <trkpt lat="45.29058" lon="4.07092">
        <ele>698.7</ele>
        <time>2026-02-26T10:16:41.449Z</time>
      </trkpt>
      <trkpt lat="45.29077" lon="4.07173">
        <ele>704.6</ele>
        <time>2026-02-26T10:16:48.132Z</time>
      </trkpt>
      <trkpt lat="45.29016" lon="4.07213">
        <ele>702.4</ele>
        <time>2026-02-26T10:16:55.553Z</time>
      </trkpt>
      <trkpt lat="45.2898" lon="4.07242">
        <ele>704.1</ele>
        <time>2026-02-26T10:17:00.194Z</time>
      </trkpt>
      <trkpt lat="45.28977" lon="4.07368">
        <ele>701.9</ele>
        <time>2026-02-26T10:17:10.070Z</time>
      </trkpt>
      <trkpt lat="45.28986" lon="4.07435">
        <ele>697.6</ele>
        <time>2026-02-26T10:17:15.420Z</time>
      </trkpt>
      <trkpt lat="45.29012" lon="4.07477">
        <ele>693.6</ele>
        <time>2026-02-26T10:17:19.872Z</time>
      </trkpt>
      <trkpt lat="45.29051" lon="4.0752">
        <ele>687</ele>
        <time>2026-02-26T10:17:25.344Z</time>
      </trkpt>
      <trkpt lat="45.29042" lon="4.07651">
        <ele>672.6</ele>
        <time>2026-02-26T10:17:35.692Z</time>
      </trkpt>
      <trkpt lat="45.28993" lon="4.07786">
        <ele>661.9</ele>
        <time>2026-02-26T10:17:47.599Z</time>
      </trkpt>
      <trkpt lat="45.28952" lon="4.07893">
        <ele>655.8</ele>
        <time>2026-02-26T10:17:57.210Z</time>
      </trkpt>
      <trkpt lat="45.28885" lon="4.07936">
        <ele>654</ele>
        <time>2026-02-26T10:18:05.345Z</time>
      </trkpt>
      <trkpt lat="45.28831" lon="4.0799">
        <ele>654.5</ele>
        <time>2026-02-26T10:18:12.684Z</time>
      </trkpt>
      <trkpt lat="45.28812" lon="4.08029">
        <ele>650.6</ele>
        <time>2026-02-26T10:18:16.372Z</time>
      </trkpt>
      <trkpt lat="45.28756" lon="4.08058">
        <ele>654.1</ele>
        <time>2026-02-26T10:18:23.049Z</time>
      </trkpt>
      <trkpt lat="45.28729" lon="4.08063">
        <ele>656</ele>
        <time>2026-02-26T10:18:26.018Z</time>
      </trkpt>
      <trkpt lat="45.28712" lon="4.08079">
        <ele>655.6</ele>
        <time>2026-02-26T10:18:28.391Z</time>
      </trkpt>
      <trkpt lat="45.28659" lon="4.08045">
        <ele>662.5</ele>
        <time>2026-02-26T10:18:34.833Z</time>
      </trkpt>
      <trkpt lat="45.28587" lon="4.08026">
        <ele>660.6</ele>
        <time>2026-02-26T10:18:43.029Z</time>
      </trkpt>
      <trkpt lat="45.28582" lon="4.07997">
        <ele>661.8</ele>
        <time>2026-02-26T10:18:45.360Z</time>
      </trkpt>
      <trkpt lat="45.28509" lon="4.08034">
        <ele>647.3</ele>
        <time>2026-02-26T10:18:54.101Z</time>
      </trkpt>
      <trkpt lat="45.2847" lon="4.08029">
        <ele>640.8</ele>
        <time>2026-02-26T10:18:58.507Z</time>
      </trkpt>
      <trkpt lat="45.28446" lon="4.08056">
        <ele>636.2</ele>
        <time>2026-02-26T10:19:01.838Z</time>
      </trkpt>
      <trkpt lat="45.28473" lon="4.08073">
        <ele>640</ele>
        <time>2026-02-26T10:19:05.069Z</time>
      </trkpt>
      <trkpt lat="45.28461" lon="4.08191">
        <ele>633</ele>
        <time>2026-02-26T10:19:14.427Z</time>
      </trkpt>
      <trkpt lat="45.28484" lon="4.08289">
        <ele>631.8</ele>
        <time>2026-02-26T10:19:22.510Z</time>
      </trkpt>
      <trkpt lat="45.28484" lon="4.08342">
        <ele>627.8</ele>
        <time>2026-02-26T10:19:26.670Z</time>
      </trkpt>
      <trkpt lat="45.28505" lon="4.08452">
        <ele>617.9</ele>
        <time>2026-02-26T10:19:35.592Z</time>
      </trkpt>
      <trkpt lat="45.28571" lon="4.08591">
        <ele>602.3</ele>
        <time>2026-02-26T10:19:48.761Z</time>
      </trkpt>
      <trkpt lat="45.28618" lon="4.08668">
        <ele>595.1</ele>
        <time>2026-02-26T10:19:56.721Z</time>
      </trkpt>
      <trkpt lat="45.28671" lon="4.0869">
        <ele>593.2</ele>
        <time>2026-02-26T10:20:02.871Z</time>
      </trkpt>
      <trkpt lat="45.2871" lon="4.08703">
        <ele>588.5</ele>
        <time>2026-02-26T10:20:07.374Z</time>
      </trkpt>
      <trkpt lat="45.28742" lon="4.08803">
        <ele>577.5</ele>
        <time>2026-02-26T10:20:16.070Z</time>
      </trkpt>
      <trkpt lat="45.28747" lon="4.08912">
        <ele>578.5</ele>
        <time>2026-02-26T10:20:24.716Z</time>
      </trkpt>
      <trkpt lat="45.28739" lon="4.08988">
        <ele>575.7</ele>
        <time>2026-02-26T10:20:30.766Z</time>
      </trkpt>
      <trkpt lat="45.28744" lon="4.09069">
        <ele>566</ele>
        <time>2026-02-26T10:20:37.125Z</time>
      </trkpt>
      <trkpt lat="45.28765" lon="4.09241">
        <ele>541.6</ele>
        <time>2026-02-26T10:20:50.831Z</time>
      </trkpt>
      <trkpt lat="45.28778" lon="4.0931">
        <ele>535.1</ele>
        <time>2026-02-26T10:20:56.553Z</time>
      </trkpt>
      <trkpt lat="45.28812" lon="4.09374">
        <ele>525.4</ele>
        <time>2026-02-26T10:21:02.837Z</time>
      </trkpt>
      <trkpt lat="45.28891" lon="4.09438">
        <ele>512.6</ele>
        <time>2026-02-26T10:21:13.099Z</time>
      </trkpt>
      <trkpt lat="45.28922" lon="4.09473">
        <ele>514.6</ele>
        <time>2026-02-26T10:21:17.514Z</time>
      </trkpt>
      <trkpt lat="45.2893" lon="4.09497">
        <ele>518.9</ele>
        <time>2026-02-26T10:21:19.612Z</time>
      </trkpt>
      <trkpt lat="45.2893" lon="4.09552">
        <ele>520.4</ele>
        <time>2026-02-26T10:21:23.915Z</time>
      </trkpt>
      <trkpt lat="45.28921" lon="4.09612">
        <ele>517.2</ele>
        <time>2026-02-26T10:21:28.715Z</time>
      </trkpt>
      <trkpt lat="45.28929" lon="4.09686">
        <ele>512.9</ele>
        <time>2026-02-26T10:21:34.583Z</time>
      </trkpt>
      <trkpt lat="45.28962" lon="4.09676">
        <ele>518</ele>
        <time>2026-02-26T10:21:38.328Z</time>
      </trkpt>
      <trkpt lat="45.28981" lon="4.09804">
        <ele>509.4</ele>
        <time>2026-02-26T10:21:48.605Z</time>
      </trkpt>
      <trkpt lat="45.28981" lon="4.09865">
        <ele>511.7</ele>
        <time>2026-02-26T10:21:53.389Z</time>
      </trkpt>
      <trkpt lat="45.29002" lon="4.09903">
        <ele>515.8</ele>
        <time>2026-02-26T10:21:57.122Z</time>
      </trkpt>
      <trkpt lat="45.29004" lon="4.09955">
        <ele>524</ele>
        <time>2026-02-26T10:22:01.237Z</time>
      </trkpt>
      <trkpt lat="45.28956" lon="4.10066">
        <ele>542.1</ele>
        <time>2026-02-26T10:22:11.555Z</time>
      </trkpt>
      <trkpt lat="45.28926" lon="4.10168">
        <ele>547.1</ele>
        <time>2026-02-26T10:22:20.188Z</time>
      </trkpt>
      <trkpt lat="45.28895" lon="4.10252">
        <ele>539.5</ele>
        <time>2026-02-26T10:22:27.614Z</time>
      </trkpt>
      <trkpt lat="45.28939" lon="4.10296">
        <ele>542</ele>
        <time>2026-02-26T10:22:33.654Z</time>
      </trkpt>
      <trkpt lat="45.2898" lon="4.10418">
        <ele>536</ele>
        <time>2026-02-26T10:22:44.277Z</time>
      </trkpt>
      <trkpt lat="45.29035" lon="4.10502">
        <ele>528.9</ele>
        <time>2026-02-26T10:22:53.237Z</time>
      </trkpt>
      <trkpt lat="45.29053" lon="4.10573">
        <ele>516</ele>
        <time>2026-02-26T10:22:59.182Z</time>
      </trkpt>
      <trkpt lat="45.29092" lon="4.10611">
        <ele>508.6</ele>
        <time>2026-02-26T10:23:04.418Z</time>
      </trkpt>
      <trkpt lat="45.29153" lon="4.10641">
        <ele>503.9</ele>
        <time>2026-02-26T10:23:11.584Z</time>
      </trkpt>
      <trkpt lat="45.29229" lon="4.1066">
        <ele>503</ele>
        <time>2026-02-26T10:23:20.198Z</time>
      </trkpt>
      <trkpt lat="45.29306" lon="4.10667">
        <ele>505</ele>
        <time>2026-02-26T10:23:28.867Z</time>
      </trkpt>
      <trkpt lat="45.29373" lon="4.10658">
        <ele>506.2</ele>
        <time>2026-02-26T10:23:36.300Z</time>
      </trkpt>
      <trkpt lat="45.29436" lon="4.10686">
        <ele>506.4</ele>
        <time>2026-02-26T10:23:43.640Z</time>
      </trkpt>
      <trkpt lat="45.29513" lon="4.10702">
        <ele>505.3</ele>
        <time>2026-02-26T10:23:52.367Z</time>
      </trkpt>
      <trkpt lat="45.29584" lon="4.10728">
        <ele>501.7</ele>
        <time>2026-02-26T10:24:00.480Z</time>
      </trkpt>
      <trkpt lat="45.29637" lon="4.10742">
        <ele>495</ele>
        <time>2026-02-26T10:24:06.447Z</time>
      </trkpt>
      <trkpt lat="45.29717" lon="4.10745">
        <ele>487</ele>
        <time>2026-02-26T10:24:15.395Z</time>
      </trkpt>
      <trkpt lat="45.29753" lon="4.10799">
        <ele>480.2</ele>
        <time>2026-02-26T10:24:21.282Z</time>
      </trkpt>
      <trkpt lat="45.29863" lon="4.10784">
        <ele>472.8</ele>
        <time>2026-02-26T10:24:33.689Z</time>
      </trkpt>
      <trkpt lat="45.29938" lon="4.10777">
        <ele>470.7</ele>
        <time>2026-02-26T10:24:41.986Z</time>
      </trkpt>
      <trkpt lat="45.2998" lon="4.10782">
        <ele>469.8</ele>
        <time>2026-02-26T10:24:46.675Z</time>
      </trkpt>
      <trkpt lat="45.30062" lon="4.10784">
        <ele>469.7</ele>
        <time>2026-02-26T10:24:55.800Z</time>
      </trkpt>
      <trkpt lat="45.30102" lon="4.10826">
        <ele>468.3</ele>
        <time>2026-02-26T10:25:01.381Z</time>
      </trkpt>
      <trkpt lat="45.30122" lon="4.10872">
        <ele>466.6</ele>
        <time>2026-02-26T10:25:05.520Z</time>
      </trkpt>
      <trkpt lat="45.30155" lon="4.10902">
        <ele>465.5</ele>
        <time>2026-02-26T10:25:09.985Z</time>
      </trkpt>
      <trkpt lat="45.30159" lon="4.10965">
        <ele>463.3</ele>
        <time>2026-02-26T10:25:14.906Z</time>
      </trkpt>
      <trkpt lat="45.30095" lon="4.11073">
        <ele>461</ele>
        <time>2026-02-26T10:25:26.014Z</time>
      </trkpt>
      <trkpt lat="45.30109" lon="4.11194">
        <ele>457.7</ele>
        <time>2026-02-26T10:25:35.592Z</time>
      </trkpt>
      <trkpt lat="45.30077" lon="4.11227">
        <ele>456.8</ele>
        <time>2026-02-26T10:25:39.939Z</time>
      </trkpt>
      <trkpt lat="45.30094" lon="4.11357">
        <ele>453.3</ele>
        <time>2026-02-26T10:25:50.307Z</time>
      </trkpt>
      <trkpt lat="45.30139" lon="4.115">
        <ele>449</ele>
        <time>2026-02-26T10:26:02.553Z</time>
      </trkpt>
      <trkpt lat="45.3024" lon="4.1149">
        <ele>448.5</ele>
        <time>2026-02-26T10:26:13.823Z</time>
      </trkpt>
      <trkpt lat="45.3031" lon="4.11501">
        <ele>447.3</ele>
        <time>2026-02-26T10:26:21.676Z</time>
      </trkpt>
      <trkpt lat="45.30333" lon="4.11487">
        <ele>447.3</ele>
        <time>2026-02-26T10:26:24.502Z</time>
      </trkpt>
      <trkpt lat="45.30347" lon="4.11579">
        <ele>445.8</ele>
        <time>2026-02-26T10:26:31.852Z</time>
      </trkpt>
      <trkpt lat="45.30375" lon="4.1158">
        <ele>445.1</ele>
        <time>2026-02-26T10:26:35.022Z</time>
      </trkpt>
      <trkpt lat="45.30395" lon="4.1159">
        <ele>444.4</ele>
        <time>2026-02-26T10:26:37.335Z</time>
      </trkpt>
      <trkpt lat="45.30478" lon="4.11581">
        <ele>444.1</ele>
        <time>2026-02-26T10:26:46.585Z</time>
      </trkpt>
      <trkpt lat="45.30536" lon="4.11547">
        <ele>444.3</ele>
        <time>2026-02-26T10:26:53.604Z</time>
      </trkpt>
      <trkpt lat="45.30579" lon="4.11529">
        <ele>443.1</ele>
        <time>2026-02-26T10:26:58.589Z</time>
      </trkpt>
      <trkpt lat="45.30601" lon="4.11578">
        <ele>443.2</ele>
        <time>2026-02-26T10:27:03.139Z</time>
      </trkpt>
      <trkpt lat="45.3065" lon="4.11577">
        <ele>443.7</ele>
        <time>2026-02-26T10:27:08.582Z</time>
      </trkpt>
    </trkseg>
  </trk>
</gpx>